Historyczne dane pomiarowe

Dodano dane terminowe – wersja testowa.

Dane z okresu 1951-2019

Wersja bazy: 1.34 [2019-03-16, lista zmian], aktualizacja planowana na 2019-04-15

Dane meteo z obszaru Polski uzyskane na podstawie danych udostępnionych przez Instytut Meteorologii i Gospodarki Wodnej – Państwowy Instytut Badawczy.

 

Wybierz Datę:    

       

TemperaturaWilgotnośćWiatrCiśnienieOpadyŚniegCzas trwania zjawisk
 Stacja t tx tn tng RH VA  wxwx mslp ppp RRR   cm mm wxwxwxwxwxwxwx
1994-10-10 5.1 11.0 0.0- 82.8- 2.3 3.3---- 0.0------------
1994-10-09 5.0 8.2 3.8- 94.8- 8.0 2.3---- 5.0------------
1994-10-08 7.2 11.6 1.7- 79.8- 4.0 2.3---- 2.7------------
1994-10-07 3.3 4.5 1.8- 96.3- 8.0 3.0---- 3.8------------
1994-10-06 3.0 5.6 0.0- 92.3- 5.7 3.3---- 0.6------------
1994-10-05 4.8 9.5 2.0- 84.5- 4.0 1.7---- 0.1------------
1994-10-04 9.4 17.0 4.6- 93.3- 5.7 4.7---- 3.5------------
1994-10-03 15.2 18.0 12.3- 94.8- 8.0 3.0---- 2.3------------
1994-10-02 13.7 18.0 9.5- 88.3- 6.3 0.3---- 0.6------------
1994-10-01 13.5 20.6 8.1- 88.0- 5.3 1.7---- 0.0------------
1994-09-30 13.3 18.6 10.6- 89.5- 2.3 1.7---- 0.0------------
1994-09-29 12.4 19.6 8.2- 88.0- 2.3 1.3---- 0.0------------
1994-09-28 11.5 16.5 8.2- 93.0- 4.7 2.7---- 0.0------------
1994-09-27 15.1 18.7 12.3- 98.5- 8.0 4.3---- 9.9------------
1994-09-26 17.5 21.6 13.9- 95.8- 6.0 1.0---- 0.0------------
1994-09-25 16.9 25.4 7.8- 91.0- 5.0 2.0---- 0.0------------
1994-09-24 13.1 21.4 7.9- 95.5- 3.0 2.0---- 0.0------------
1994-09-23 13.8 17.4 11.8- 83.0- 2.7 1.0---- 0.0------------
1994-09-22 12.5 16.0 9.7- 93.8- 8.0 1.7---- 0.0------------
1994-09-21 11.5 12.4 10.0- 94.3- 8.0 0.3---- 2.1------------
1994-09-20 11.4 14.0 10.6- 98.5- 8.0 1.7---- 9.7------------
1994-09-19 12.1 16.0 8.5- 90.8- 8.0 1.7---- 3.8------------
1994-09-18 11.4 15.4 8.6- 85.8- 5.3 1.7---- 0.0------------
1994-09-17 11.2 15.0 10.7- 99.0- 8.0 5.0---- 2.5------------
1994-09-16 15.8 22.0 11.5- 69.5- 3.7 3.7---- 0.0------------
1994-09-15 21.6 25.0 17.7- 64.8- 5.0 10.3---- 0.0------------
1994-09-14 19.9 28.0 14.0- 77.5- 4.3 5.3---- 0.0------------
1994-09-13 19.0 27.4 12.9- 84.8- 3.3 2.3---- 1.2------------
1994-09-12 16.8 25.0 10.9- 81.3- 4.7 2.3---- 0.0------------
1994-09-11 15.8 21.8 9.8- 80.5- 5.0 5.3---- 0.0------------
1994-09-10 16.0 23.0 9.8- 82.8- 2.3 2.0---- 0.0------------
1994-09-09 19.0 26.0 14.0- 76.8- 5.3 2.3---- 4.4------------
1994-09-08 20.1 28.0 12.8- 75.5- 5.3 7.0---- 0.0------------
1994-09-07 16.4 23.6 10.0- 87.0- 4.0 2.0---- 0.0------------
1994-09-06 15.1 18.8 13.8- 92.5- 6.0 1.0---- 7.2------------
1994-09-05 18.2 21.8 15.7- 92.5- 6.7 1.0---- 0.2------------
1994-09-04 16.8 21.0 15.7- 97.5- 8.0 1.7---- 0.1------------
1994-09-03 21.9 25.6 18.1- 81.0- 4.3 3.3---- 0.0------------
1994-09-02 19.9 27.6 14.2- 85.3- 3.7 1.0---- 0.6------------
1994-09-01 16.3 19.9 13.7- 96.0- 6.7 1.3---- 7.0------------
1994-08-31 16.2 22.6 11.6- 89.5- 6.7 2.3---- 0.0------------
1994-08-30 14.6 21.0 9.2- 79.5- 2.3 2.0---- 0.2------------
1994-08-29 16.9 19.8 14.6- 89.0- 7.0 1.3---- 0.1------------
1994-08-28 16.4 24.1 11.2- 88.3- 3.7 2.3---- 0.8------------
1994-08-27 15.5 17.6 13.4- 94.5- 8.0 2.0---- 0.0------------
1994-08-26 16.0 21.0 14.3- 96.3- 8.0 4.0---- 4.6------------
1994-08-25 19.6 24.6 14.6- 82.8- 7.0 2.3---- 4.2------------
1994-08-24 17.6 25.1 10.2- 79.3- 4.0 1.3---- 0.0------------
1994-08-23 16.7 24.5 10.0- 78.0- 3.3 0.7---- 0.0------------
1994-08-22 17.7 24.3 11.4- 84.8- 4.7 2.0---- 0.0------------
1994-08-21 16.8 22.2 10.0- 73.3- 3.3 2.0---- 0.6------------
1994-08-20 16.8 20.2 11.9- 77.3- 6.7 1.7---- 4.7------------
1994-08-19 13.7 17.6 9.3- 79.3- 6.3 3.3---- 2.8------------
1994-08-18 14.6 21.2 11.2- 94.3- 6.3 2.3---- 17.3------------
1994-08-17 17.8 26.7 10.3- 74.0- 2.0 1.7---- 1.5------------
1994-08-16 15.8 20.0 12.5- 86.0- 6.3 2.0---- 0.0------------
1994-08-15 13.9 18.6 9.2- 72.8- 5.7 4.0---- 0.1------------
1994-08-14 16.1 20.0 13.3- 63.5- 4.0 4.0---- 0.0------------
1994-08-13 18.7 23.9 15.1- 86.5- 5.7 2.3---- 1.0------------
1994-08-12 17.5 20.7 14.6- 90.0- 7.0 2.0---- 4.5------------
419.7 ms

 

Źródłem pochodzenia danych jest Instytut Meteorologii i Gospodarki Wodnej – Państwowy Instytut Badawczy. Dane Instytutu Meteorologii i Gospodarki Wodnej – Państwowego Instytutu Badawczego zostały przetworzone.

Dane źródłowe można odnaleźć na stronie https://dane.imgw.pl